sensor_id;sensor_type;location;lat;lon;timestamp;pressure;altitude;pressure_sealevel;temperature;humidity
46722;BME280;32455;43.430;23.136;2022-08-16T00:00:01;97478.13;;;22.25;63.86
46722;BME280;32455;43.430;23.136;2022-08-16T00:02:47;97504.59;;;22.47;63.72
46722;BME280;32455;43.430;23.136;2022-08-16T00:05:32;97502.38;;;22.49;63.57
46722;BME280;32455;43.430;23.136;2022-08-16T00:08:18;97489.94;;;22.43;63.47
46722;BME280;32455;43.430;23.136;2022-08-16T00:11:06;97480.09;;;22.34;63.69
46722;BME280;32455;43.430;23.136;2022-08-16T00:13:53;97495.88;;;22.37;63.14
46722;BME280;32455;43.430;23.136;2022-08-16T00:16:39;97496.69;;;22.37;63.24
46722;BME280;32455;43.430;23.136;2022-08-16T00:19:29;97485.56;;;22.34;63.32
46722;BME280;32455;43.430;23.136;2022-08-16T00:22:15;97496.22;;;22.44;62.85
46722;BME280;32455;43.430;23.136;2022-08-16T00:25:00;97495.91;;;22.45;62.77
46722;BME280;32455;43.430;23.136;2022-08-16T00:27:47;97487.03;;;22.40;63.01
46722;BME280;32455;43.430;23.136;2022-08-16T00:30:32;97491.22;;;22.37;63.24
46722;BME280;32455;43.430;23.136;2022-08-16T00:33:18;97489.28;;;22.38;64.23
46722;BME280;32455;43.430;23.136;2022-08-16T00:36:03;97483.06;;;22.15;65.79
46722;BME280;32455;43.430;23.136;2022-08-16T00:38:49;97484.22;;;22.00;67.34
46722;BME280;32455;43.430;23.136;2022-08-16T00:41:34;97498.38;;;21.93;68.04
46722;BME280;32455;43.430;23.136;2022-08-16T00:44:21;97483.25;;;21.96;67.07
46722;BME280;32455;43.430;23.136;2022-08-16T00:47:11;97484.50;;;21.90;66.54
46722;BME280;32455;43.430;23.136;2022-08-16T00:50:00;97483.91;;;21.93;66.15
46722;BME280;32455;43.430;23.136;2022-08-16T00:52:46;97481.25;;;21.88;65.84
46722;BME280;32455;43.430;23.136;2022-08-16T00:55:34;97484.22;;;22.00;65.48
46722;BME280;32455;43.430;23.136;2022-08-16T00:58:23;97494.59;;;22.12;64.51
46722;BME280;32455;43.430;23.136;2022-08-16T01:01:11;97503.03;;;22.15;64.73
46722;BME280;32455;43.430;23.136;2022-08-16T01:03:59;97493.50;;;22.13;64.61
46722;BME280;32455;43.430;23.136;2022-08-16T01:06:45;97500.41;;;22.10;65.48
46722;BME280;32455;43.430;23.136;2022-08-16T01:09:37;97506.50;;;22.07;65.77
46722;BME280;32455;43.430;23.136;2022-08-16T01:12:23;97512.25;;;21.97;65.35
46722;BME280;32455;43.430;23.136;2022-08-16T01:15:09;97512.41;;;22.00;65.61
46722;BME280;32455;43.430;23.136;2022-08-16T01:17:56;97505.50;;;22.03;64.75
46722;BME280;32455;43.430;23.136;2022-08-16T01:20:47;97505.69;;;22.07;65.11
46722;BME280;32455;43.430;23.136;2022-08-16T01:27:15;97505.38;;;22.08;65.94
46722;BME280;32455;43.430;23.136;2022-08-16T01:30:12;97513.09;;;22.06;66.73
46722;BME280;32455;43.430;23.136;2022-08-16T01:33:00;97514.88;;;22.11;65.57
46722;BME280;32455;43.430;23.136;2022-08-16T01:35:56;97538.94;;;22.22;65.07
46722;BME280;32455;43.430;23.136;2022-08-16T01:38:46;97540.41;;;22.20;65.85
46722;BME280;32455;43.430;23.136;2022-08-16T01:41:32;97527.75;;;22.10;66.56
46722;BME280;32455;43.430;23.136;2022-08-16T01:44:18;97533.25;;;22.10;65.91
46722;BME280;32455;43.430;23.136;2022-08-16T01:47:04;97550.84;;;22.18;65.95
46722;BME280;32455;43.430;23.136;2022-08-16T01:49:49;97556.69;;;22.25;65.13
46722;BME280;32455;43.430;23.136;2022-08-16T01:52:35;97551.72;;;22.27;65.27
46722;BME280;32455;43.430;23.136;2022-08-16T01:55:21;97558.28;;;22.26;65.48
46722;BME280;32455;43.430;23.136;2022-08-16T01:58:08;97549.88;;;22.22;65.39
46722;BME280;32455;43.430;23.136;2022-08-16T02:00:53;97544.75;;;22.21;65.52
46722;BME280;32455;43.430;23.136;2022-08-16T02:03:38;97546.34;;;22.22;65.07
46722;BME280;32455;43.430;23.136;2022-08-16T02:06:26;97557.84;;;22.33;65.13
46722;BME280;32455;43.430;23.136;2022-08-16T02:09:13;97550.44;;;22.33;64.73
46722;BME280;32455;43.430;23.136;2022-08-16T02:11:59;97552.25;;;22.38;64.33
46722;BME280;32455;43.430;23.136;2022-08-16T02:14:44;97554.34;;;22.41;64.09
46722;BME280;32455;43.430;23.136;2022-08-16T02:17:30;97554.53;;;22.44;63.61
46722;BME280;32455;43.430;23.136;2022-08-16T02:20:16;97556.00;;;22.50;63.51
46722;BME280;32455;43.430;23.136;2022-08-16T02:23:03;97549.56;;;22.55;63.35
46722;BME280;32455;43.430;23.136;2022-08-16T02:25:49;97560.25;;;22.65;63.11
46722;BME280;32455;43.430;23.136;2022-08-16T02:28:35;97556.03;;;22.59;63.61
46722;BME280;32455;43.430;23.136;2022-08-16T02:31:21;97550.59;;;22.68;63.37
46722;BME280;32455;43.430;23.136;2022-08-16T02:34:07;97564.13;;;22.73;63.76
46722;BME280;32455;43.430;23.136;2022-08-16T02:36:52;97570.09;;;22.66;64.60
46722;BME280;32455;43.430;23.136;2022-08-16T02:39:38;97561.38;;;22.64;64.61
46722;BME280;32455;43.430;23.136;2022-08-16T02:42:23;97562.81;;;22.62;65.07
46722;BME280;32455;43.430;23.136;2022-08-16T02:45:08;97568.31;;;22.62;64.99
46722;BME280;32455;43.430;23.136;2022-08-16T02:47:54;97572.09;;;22.52;66.20
46722;BME280;32455;43.430;23.136;2022-08-16T02:50:39;97571.59;;;22.41;66.63
46722;BME280;32455;43.430;23.136;2022-08-16T02:53:24;97561.56;;;22.37;66.32
46722;BME280;32455;43.430;23.136;2022-08-16T02:56:11;97542.47;;;22.14;66.54
46722;BME280;32455;43.430;23.136;2022-08-16T02:58:57;97557.44;;;22.17;66.20
46722;BME280;32455;43.430;23.136;2022-08-16T03:01:42;97538.34;;;22.03;64.80
46722;BME280;32455;43.430;23.136;2022-08-16T03:04:29;97540.03;;;21.90;65.88
46722;BME280;32455;43.430;23.136;2022-08-16T03:07:14;97532.38;;;21.79;65.19
46722;BME280;32455;43.430;23.136;2022-08-16T03:09:59;97528.88;;;21.87;64.47
46722;BME280;32455;43.430;23.136;2022-08-16T03:12:45;97554.38;;;21.96;65.06
46722;BME280;32455;43.430;23.136;2022-08-16T03:15:31;97546.28;;;21.91;64.80
46722;BME280;32455;43.430;23.136;2022-08-16T03:18:16;97545.81;;;21.89;64.16
46722;BME280;32455;43.430;23.136;2022-08-16T03:21:03;97536.53;;;21.98;63.00
46722;BME280;32455;43.430;23.136;2022-08-16T03:23:48;97536.97;;;21.92;63.24
46722;BME280;32455;43.430;23.136;2022-08-16T03:26:34;97543.88;;;21.89;64.96
46722;BME280;32455;43.430;23.136;2022-08-16T03:29:19;97540.09;;;21.77;65.09
46722;BME280;32455;43.430;23.136;2022-08-16T03:32:05;97532.69;;;21.77;65.21
46722;BME280;32455;43.430;23.136;2022-08-16T03:34:51;97522.44;;;21.60;65.86
46722;BME280;32455;43.430;23.136;2022-08-16T03:37:39;97535.97;;;21.65;65.75
46722;BME280;32455;43.430;23.136;2022-08-16T03:40:29;97531.97;;;21.63;65.97
46722;BME280;32455;43.430;23.136;2022-08-16T03:43:15;97526.09;;;21.56;66.67
46722;BME280;32455;43.430;23.136;2022-08-16T03:46:01;97530.69;;;21.46;68.15
46722;BME280;32455;43.430;23.136;2022-08-16T03:48:47;97537.03;;;21.56;67.85
46722;BME280;32455;43.430;23.136;2022-08-16T03:51:33;97522.50;;;21.46;67.58
46722;BME280;32455;43.430;23.136;2022-08-16T03:54:19;97537.03;;;21.56;67.58
46722;BME280;32455;43.430;23.136;2022-08-16T03:57:04;97521.19;;;21.44;67.47
46722;BME280;32455;43.430;23.136;2022-08-16T03:59:50;97519.44;;;21.48;66.91
46722;BME280;32455;43.430;23.136;2022-08-16T04:02:35;97519.56;;;21.43;66.45
46722;BME280;32455;43.430;23.136;2022-08-16T04:05:21;97526.91;;;21.56;65.57
46722;BME280;32455;43.430;23.136;2022-08-16T04:08:07;97524.78;;;21.53;65.05
46722;BME280;32455;43.430;23.136;2022-08-16T04:10:54;97532.84;;;21.58;64.60
46722;BME280;32455;43.430;23.136;2022-08-16T04:13:39;97530.44;;;21.57;64.69
46722;BME280;32455;43.430;23.136;2022-08-16T04:16:25;97547.16;;;21.55;64.46
46722;BME280;32455;43.430;23.136;2022-08-16T04:19:10;97577.03;;;21.52;65.86
46722;BME280;32455;43.430;23.136;2022-08-16T04:21:56;97591.91;;;21.45;66.14
46722;BME280;32455;43.430;23.136;2022-08-16T04:24:41;97589.50;;;21.44;66.08
46722;BME280;32455;43.430;23.136;2022-08-16T04:27:27;97578.81;;;21.34;68.25
46722;BME280;32455;43.430;23.136;2022-08-16T04:30:14;97575.88;;;21.16;70.59
46722;BME280;32455;43.430;23.136;2022-08-16T04:33:00;97537.06;;;20.92;71.39
46722;BME280;32455;43.430;23.136;2022-08-16T04:35:45;97573.25;;;20.97;72.81
46722;BME280;32455;43.430;23.136;2022-08-16T04:38:31;97568.41;;;20.94;73.93
46722;BME280;32455;43.430;23.136;2022-08-16T04:41:16;97571.94;;;20.67;76.67
46722;BME280;32455;43.430;23.136;2022-08-16T04:44:03;97577.63;;;20.71;77.26
46722;BME280;32455;43.430;23.136;2022-08-16T04:46:48;97579.75;;;20.60;78.65
46722;BME280;32455;43.430;23.136;2022-08-16T04:49:33;97563.97;;;20.24;81.18
46722;BME280;32455;43.430;23.136;2022-08-16T04:52:19;97590.03;;;20.63;78.15
46722;BME280;32455;43.430;23.136;2022-08-16T04:55:17;97593.41;;;20.88;74.67
46722;BME280;32455;43.430;23.136;2022-08-16T04:58:05;97592.09;;;20.99;73.77
46722;BME280;32455;43.430;23.136;2022-08-16T05:00:51;97575.97;;;20.97;73.40
46722;BME280;32455;43.430;23.136;2022-08-16T05:03:37;97581.75;;;21.10;71.71
46722;BME280;32455;43.430;23.136;2022-08-16T05:06:22;97570.09;;;21.18;71.09
46722;BME280;32455;43.430;23.136;2022-08-16T05:09:08;97578.56;;;21.44;69.11
46722;BME280;32455;43.430;23.136;2022-08-16T05:11:53;97577.44;;;21.45;68.95
46722;BME280;32455;43.430;23.136;2022-08-16T05:14:39;97571.19;;;21.44;68.96
46722;BME280;32455;43.430;23.136;2022-08-16T05:17:24;97583.38;;;21.61;69.21
46722;BME280;32455;43.430;23.136;2022-08-16T05:20:10;97587.72;;;21.75;66.83
46722;BME280;32455;43.430;23.136;2022-08-16T05:22:55;97576.19;;;21.87;66.77
46722;BME280;32455;43.430;23.136;2022-08-16T05:25:41;97573.22;;;21.97;66.06
46722;BME280;32455;43.430;23.136;2022-08-16T05:28:27;97576.50;;;22.08;66.60
46722;BME280;32455;43.430;23.136;2022-08-16T05:31:12;97557.66;;;22.07;65.11
46722;BME280;32455;43.430;23.136;2022-08-16T05:33:59;97554.88;;;22.20;64.59
46722;BME280;32455;43.430;23.136;2022-08-16T05:36:46;97552.16;;;22.20;64.36
46722;BME280;32455;43.430;23.136;2022-08-16T05:39:33;97552.19;;;22.29;64.00
46722;BME280;32455;43.430;23.136;2022-08-16T05:42:18;97547.53;;;22.30;64.20
46722;BME280;32455;43.430;23.136;2022-08-16T05:45:04;97553.88;;;22.47;62.99
46722;BME280;32455;43.430;23.136;2022-08-16T05:47:50;97562.81;;;22.62;61.25
46722;BME280;32455;43.430;23.136;2022-08-16T05:50:35;97553.84;;;22.70;61.57
46722;BME280;32455;43.430;23.136;2022-08-16T05:53:21;97563.88;;;22.83;62.32
46722;BME280;32455;43.430;23.136;2022-08-16T05:56:06;97547.09;;;22.85;62.40
46722;BME280;32455;43.430;23.136;2022-08-16T05:58:52;97564.09;;;22.95;61.23
46722;BME280;32455;43.430;23.136;2022-08-16T06:01:38;97566.22;;;23.07;61.39
46722;BME280;32455;43.430;23.136;2022-08-16T06:04:24;97572.66;;;23.11;60.70
46722;BME280;32455;43.430;23.136;2022-08-16T06:07:10;97570.09;;;23.15;60.46
46722;BME280;32455;43.430;23.136;2022-08-16T06:09:56;97573.50;;;23.20;59.77
46722;BME280;32455;43.430;23.136;2022-08-16T06:12:43;97575.78;;;23.27;59.13
46722;BME280;32455;43.430;23.136;2022-08-16T06:15:29;97576.28;;;23.46;57.83
46722;BME280;32455;43.430;23.136;2022-08-16T06:18:14;97579.34;;;23.45;58.13
46722;BME280;32455;43.430;23.136;2022-08-16T06:20:59;97569.00;;;23.50;57.37
46722;BME280;32455;43.430;23.136;2022-08-16T06:23:45;97581.28;;;23.62;57.61
46722;BME280;32455;43.430;23.136;2022-08-16T06:26:30;97566.81;;;23.70;56.54
46722;BME280;32455;43.430;23.136;2022-08-16T06:29:14;97572.63;;;23.86;56.31
46722;BME280;32455;43.430;23.136;2022-08-16T06:31:59;97582.63;;;23.99;55.90
46722;BME280;32455;43.430;23.136;2022-08-16T06:34:45;97563.72;;;23.97;56.90
46722;BME280;32455;43.430;23.136;2022-08-16T06:37:30;97563.19;;;24.21;54.92
46722;BME280;32455;43.430;23.136;2022-08-16T06:40:16;97571.84;;;24.49;53.84
46722;BME280;32455;43.430;23.136;2022-08-16T06:43:01;97572.34;;;24.52;53.76
46722;BME280;32455;43.430;23.136;2022-08-16T06:45:47;97571.97;;;24.62;55.20
46722;BME280;32455;43.430;23.136;2022-08-16T06:48:33;97562.91;;;24.70;55.90
46722;BME280;32455;43.430;23.136;2022-08-16T06:51:19;97562.66;;;24.84;54.24
46722;BME280;32455;43.430;23.136;2022-08-16T06:54:06;97566.44;;;25.09;53.80
46722;BME280;32455;43.430;23.136;2022-08-16T06:56:51;97554.97;;;25.07;53.81
46722;BME280;32455;43.430;23.136;2022-08-16T06:59:37;97562.59;;;25.10;52.96
46722;BME280;32455;43.430;23.136;2022-08-16T07:02:23;97563.78;;;25.21;53.99
46722;BME280;32455;43.430;23.136;2022-08-16T07:05:11;97551.00;;;25.25;53.80
46722;BME280;32455;43.430;23.136;2022-08-16T07:07:57;97550.19;;;25.25;54.56
46722;BME280;32455;43.430;23.136;2022-08-16T07:10:42;97548.19;;;25.55;54.35
46722;BME280;32455;43.430;23.136;2022-08-16T07:13:28;97551.28;;;25.53;52.82
46722;BME280;32455;43.430;23.136;2022-08-16T07:16:15;97555.66;;;25.54;53.08
46722;BME280;32455;43.430;23.136;2022-08-16T07:19:01;97550.34;;;25.70;48.51
46722;BME280;32455;43.430;23.136;2022-08-16T07:21:46;97559.34;;;26.00;50.13
46722;BME280;32455;43.430;23.136;2022-08-16T07:24:32;97571.31;;;26.16;48.00
46722;BME280;32455;43.430;23.136;2022-08-16T07:27:17;97558.03;;;26.31;49.13
46722;BME280;32455;43.430;23.136;2022-08-16T07:30:05;97563.53;;;26.18;50.28
46722;BME280;32455;43.430;23.136;2022-08-16T07:32:51;97569.88;;;26.31;48.02
46722;BME280;32455;43.430;23.136;2022-08-16T07:35:37;97559.19;;;26.30;48.40
46722;BME280;32455;43.430;23.136;2022-08-16T07:38:22;97568.56;;;26.62;46.84
46722;BME280;32455;43.430;23.136;2022-08-16T07:41:11;97567.56;;;26.91;47.71
46722;BME280;32455;43.430;23.136;2022-08-16T07:43:56;97571.25;;;26.83;49.27
46722;BME280;32455;43.430;23.136;2022-08-16T07:46:42;97556.28;;;26.71;52.74
46722;BME280;32455;43.430;23.136;2022-08-16T07:49:28;97560.91;;;26.92;52.97
46722;BME280;32455;43.430;23.136;2022-08-16T07:52:13;97579.66;;;27.11;54.23
46722;BME280;32455;43.430;23.136;2022-08-16T07:54:59;97557.22;;;27.00;56.29
46722;BME280;32455;43.430;23.136;2022-08-16T07:57:44;97565.84;;;27.11;56.60
46722;BME280;32455;43.430;23.136;2022-08-16T08:00:31;97572.19;;;27.11;55.99
46722;BME280;32455;43.430;23.136;2022-08-16T08:03:16;97583.19;;;27.24;54.51
46722;BME280;32455;43.430;23.136;2022-08-16T08:06:02;97578.03;;;27.22;56.14
46722;BME280;32455;43.430;23.136;2022-08-16T08:08:48;97590.47;;;27.28;56.18
46722;BME280;32455;43.430;23.136;2022-08-16T08:11:33;97572.75;;;27.29;55.46
46722;BME280;32455;43.430;23.136;2022-08-16T08:14:18;97572.75;;;27.29;54.85
46722;BME280;32455;43.430;23.136;2022-08-16T08:17:04;97584.09;;;27.40;53.59
46722;BME280;32455;43.430;23.136;2022-08-16T08:19:51;97571.47;;;27.39;52.18
46722;BME280;32455;43.430;23.136;2022-08-16T08:22:37;97574.91;;;27.48;52.29
46722;BME280;32455;43.430;23.136;2022-08-16T08:25:23;97584.41;;;27.63;52.42
46722;BME280;32455;43.430;23.136;2022-08-16T08:28:10;97588.53;;;27.81;51.47
46722;BME280;32455;43.430;23.136;2022-08-16T08:30:55;97579.53;;;27.97;50.50
46722;BME280;32455;43.430;23.136;2022-08-16T08:33:40;97585.75;;;27.93;49.73
46722;BME280;32455;43.430;23.136;2022-08-16T08:36:28;97590.00;;;27.91;51.06
46722;BME280;32455;43.430;23.136;2022-08-16T08:39:14;97582.56;;;28.07;49.21
46722;BME280;32455;43.430;23.136;2022-08-16T08:42:00;97581.88;;;28.26;48.97
46722;BME280;32455;43.430;23.136;2022-08-16T08:44:46;97591.88;;;28.59;46.20
46722;BME280;32455;43.430;23.136;2022-08-16T08:47:31;97578.16;;;28.62;46.70
46722;BME280;32455;43.430;23.136;2022-08-16T08:50:17;97586.53;;;28.50;47.58
46722;BME280;32455;43.430;23.136;2022-08-16T08:53:03;97581.19;;;28.29;48.54
46722;BME280;32455;43.430;23.136;2022-08-16T08:55:48;97584.19;;;28.52;48.38
46722;BME280;32455;43.430;23.136;2022-08-16T08:58:35;97572.72;;;28.82;43.03
46722;BME280;32455;43.430;23.136;2022-08-16T09:01:27;97596.03;;;28.97;45.90
46722;BME280;32455;43.430;23.136;2022-08-16T09:04:13;97591.22;;;29.09;44.89
46722;BME280;32455;43.430;23.136;2022-08-16T09:06:59;97598.25;;;29.07;46.33
46722;BME280;32455;43.430;23.136;2022-08-16T09:09:44;97581.84;;;29.14;45.29
46722;BME280;32455;43.430;23.136;2022-08-16T09:12:30;97603.94;;;29.30;45.07
46722;BME280;32455;43.430;23.136;2022-08-16T09:15:16;97602.88;;;28.87;47.24
46722;BME280;32455;43.430;23.136;2022-08-16T09:18:02;97590.72;;;28.44;48.89
46722;BME280;32455;43.430;23.136;2022-08-16T09:20:48;97588.94;;;28.24;49.11
46722;BME280;32455;43.430;23.136;2022-08-16T09:23:37;97597.66;;;28.26;47.91
46722;BME280;32455;43.430;23.136;2022-08-16T09:26:23;97597.56;;;28.50;44.19
46722;BME280;32455;43.430;23.136;2022-08-16T09:29:08;97588.03;;;28.19;49.47
46722;BME280;32455;43.430;23.136;2022-08-16T09:31:55;97602.91;;;28.15;44.73
46722;BME280;32455;43.430;23.136;2022-08-16T09:34:41;97612.69;;;28.12;44.46
46722;BME280;32455;43.430;23.136;2022-08-16T09:37:28;97616.66;;;27.99;46.05
46722;BME280;32455;43.430;23.136;2022-08-16T09:40:14;97609.22;;;27.87;48.65
46722;BME280;32455;43.430;23.136;2022-08-16T09:43:00;97612.28;;;28.26;49.61
46722;BME280;32455;43.430;23.136;2022-08-16T09:45:46;97610.69;;;28.53;50.71
46722;BME280;32455;43.430;23.136;2022-08-16T09:48:35;97608.56;;;28.34;50.15
46722;BME280;32455;43.430;23.136;2022-08-16T09:51:26;97598.22;;;28.03;51.22
46722;BME280;32455;43.430;23.136;2022-08-16T09:54:11;97590.84;;;27.67;53.57
46722;BME280;32455;43.430;23.136;2022-08-16T09:56:58;97594.63;;;27.75;50.74
46722;BME280;32455;43.430;23.136;2022-08-16T09:59:43;97597.19;;;27.55;54.71
46722;BME280;32455;43.430;23.136;2022-08-16T10:02:29;97617.44;;;27.47;55.81
46722;BME280;32455;43.430;23.136;2022-08-16T10:05:14;97612.75;;;27.35;57.94
46722;BME280;32455;43.430;23.136;2022-08-16T10:07:59;97617.81;;;27.45;52.26
46722;BME280;32455;43.430;23.136;2022-08-16T10:10:45;97601.69;;;27.48;54.58
46722;BME280;32455;43.430;23.136;2022-08-16T10:13:48;97592.25;;;27.73;49.99
46722;BME280;32455;43.430;23.136;2022-08-16T10:16:34;97599.53;;;27.93;55.14
46722;BME280;32455;43.430;23.136;2022-08-16T10:19:19;97608.03;;;28.29;48.86
46722;BME280;32455;43.430;23.136;2022-08-16T10:22:04;97610.69;;;28.25;48.69
46722;BME280;32455;43.430;23.136;2022-08-16T10:24:50;97594.19;;;28.41;50.06
46722;BME280;32455;43.430;23.136;2022-08-16T10:27:35;97603.03;;;28.62;50.95
46722;BME280;32455;43.430;23.136;2022-08-16T10:30:21;97597.50;;;28.34;51.65
46722;BME280;32455;43.430;23.136;2022-08-16T10:33:06;97606.53;;;28.31;48.68
46722;BME280;32455;43.430;23.136;2022-08-16T10:35:52;97598.72;;;28.21;49.33
46722;BME280;32455;43.430;23.136;2022-08-16T10:38:39;97590.47;;;27.93;51.18
46722;BME280;32455;43.430;23.136;2022-08-16T10:41:25;97591.22;;;28.06;51.46
46722;BME280;32455;43.430;23.136;2022-08-16T10:44:10;97597.06;;;28.04;50.40
46722;BME280;32455;43.430;23.136;2022-08-16T10:46:58;97611.59;;;28.01;48.49
46722;BME280;32455;43.430;23.136;2022-08-16T10:49:43;97603.03;;;27.78;53.67
46722;BME280;32455;43.430;23.136;2022-08-16T10:52:29;97602.09;;;27.86;54.86
46722;BME280;32455;43.430;23.136;2022-08-16T10:55:17;97599.28;;;27.99;52.97
46722;BME280;32455;43.430;23.136;2022-08-16T10:58:10;97600.53;;;28.29;49.84
46722;BME280;32455;43.430;23.136;2022-08-16T11:00:56;97595.28;;;28.68;43.36
46722;BME280;32455;43.430;23.136;2022-08-16T11:03:41;97601.19;;;28.98;42.34
46722;BME280;32455;43.430;23.136;2022-08-16T11:06:28;97598.59;;;29.21;43.34
46722;BME280;32455;43.430;23.136;2022-08-16T11:09:13;97598.28;;;29.58;41.17
46722;BME280;32455;43.430;23.136;2022-08-16T11:11:59;97590.47;;;29.63;44.68
46722;BME280;32455;43.430;23.136;2022-08-16T11:14:45;97598.72;;;29.44;43.88
46722;BME280;32455;43.430;23.136;2022-08-16T11:17:30;97609.72;;;29.40;42.65
46722;BME280;32455;43.430;23.136;2022-08-16T11:20:16;97594.50;;;29.66;41.55
46722;BME280;32455;43.430;23.136;2022-08-16T11:23:01;97593.41;;;29.71;42.18
46722;BME280;32455;43.430;23.136;2022-08-16T11:25:47;97590.59;;;29.51;42.35
46722;BME280;32455;43.430;23.136;2022-08-16T11:28:34;97592.22;;;29.36;41.23
46722;BME280;32455;43.430;23.136;2022-08-16T11:31:20;97587.59;;;29.25;42.05
46722;BME280;32455;43.430;23.136;2022-08-16T11:34:06;97575.72;;;29.24;42.67
46722;BME280;32455;43.430;23.136;2022-08-16T11:36:52;97585.16;;;29.04;45.06
46722;BME280;32455;43.430;23.136;2022-08-16T11:39:37;97576.72;;;28.84;46.50
46722;BME280;32455;43.430;23.136;2022-08-16T11:42:23;97582.06;;;28.77;47.58
46722;BME280;32455;43.430;23.136;2022-08-16T11:45:09;97580.28;;;28.69;48.62
46722;BME280;32455;43.430;23.136;2022-08-16T11:47:55;97576.09;;;28.59;49.60
46722;BME280;32455;43.430;23.136;2022-08-16T11:50:42;97579.34;;;28.33;55.36
46722;BME280;32455;43.430;23.136;2022-08-16T11:53:28;97577.88;;;28.67;51.36
46722;BME280;32455;43.430;23.136;2022-08-16T11:56:14;97565.06;;;28.75;50.75
46722;BME280;32455;43.430;23.136;2022-08-16T11:58:59;97545.22;;;28.73;47.40
46722;BME280;32455;43.430;23.136;2022-08-16T12:01:44;97547.97;;;29.20;50.59
46722;BME280;32455;43.430;23.136;2022-08-16T12:04:31;97548.44;;;29.58;44.28
46722;BME280;32455;43.430;23.136;2022-08-16T12:07:18;97557.78;;;29.88;42.26
46722;BME280;32455;43.430;23.136;2022-08-16T12:10:06;97569.00;;;29.96;44.13
46722;BME280;32455;43.430;23.136;2022-08-16T12:12:52;97546.34;;;29.90;43.50
46722;BME280;32455;43.430;23.136;2022-08-16T12:15:38;97557.72;;;30.24;41.44
46722;BME280;32455;43.430;23.136;2022-08-16T12:18:24;97558.41;;;30.40;45.55
46722;BME280;32455;43.430;23.136;2022-08-16T12:21:10;97545.41;;;30.44;39.38
46722;BME280;32455;43.430;23.136;2022-08-16T12:23:55;97557.31;;;30.67;41.11
46722;BME280;32455;43.430;23.136;2022-08-16T12:26:41;97557.38;;;30.71;39.30
46722;BME280;32455;43.430;23.136;2022-08-16T12:29:27;97569.03;;;31.03;39.68
46722;BME280;32455;43.430;23.136;2022-08-16T12:32:13;97563.16;;;31.08;37.41
46722;BME280;32455;43.430;23.136;2022-08-16T12:34:59;97546.09;;;31.06;36.37
46722;BME280;32455;43.430;23.136;2022-08-16T12:37:46;97555.75;;;31.16;36.58
46722;BME280;32455;43.430;23.136;2022-08-16T12:40:37;97546.56;;;31.12;39.42
46722;BME280;32455;43.430;23.136;2022-08-16T12:43:23;97558.25;;;31.25;38.29
46722;BME280;32455;43.430;23.136;2022-08-16T12:46:09;97548.09;;;31.32;38.16
46722;BME280;32455;43.430;23.136;2022-08-16T12:48:59;97542.59;;;31.13;38.57
46722;BME280;32455;43.430;23.136;2022-08-16T12:51:45;97549.28;;;31.08;36.62
46722;BME280;32455;43.430;23.136;2022-08-16T12:54:31;97549.41;;;31.15;36.06
46722;BME280;32455;43.430;23.136;2022-08-16T12:57:17;97538.25;;;30.66;37.33
46722;BME280;32455;43.430;23.136;2022-08-16T13:00:10;97546.88;;;30.15;40.24
46722;BME280;32455;43.430;23.136;2022-08-16T13:02:59;97540.59;;;29.99;40.55
46722;BME280;32455;43.430;23.136;2022-08-16T13:05:44;97529.94;;;30.43;40.63
46722;BME280;32455;43.430;23.136;2022-08-16T13:08:30;97540.16;;;30.81;39.42
46722;BME280;32455;43.430;23.136;2022-08-16T13:11:23;97532.16;;;31.03;37.65
46722;BME280;32455;43.430;23.136;2022-08-16T13:14:09;97537.03;;;31.09;37.50
46722;BME280;32455;43.430;23.136;2022-08-16T13:16:55;97539.47;;;31.14;36.22
46722;BME280;32455;43.430;23.136;2022-08-16T13:19:41;97542.72;;;31.20;36.28
46722;BME280;32455;43.430;23.136;2022-08-16T13:22:26;97534.22;;;31.32;36.51
46722;BME280;32455;43.430;23.136;2022-08-16T13:25:15;97526.69;;;31.33;36.63
46722;BME280;32455;43.430;23.136;2022-08-16T13:28:02;97532.13;;;31.56;37.21
46722;BME280;32455;43.430;23.136;2022-08-16T13:30:52;97533.03;;;31.63;37.42
46722;BME280;32455;43.430;23.136;2022-08-16T13:33:38;97523.91;;;31.63;36.47
46722;BME280;32455;43.430;23.136;2022-08-16T13:36:23;97527.69;;;31.81;34.96
46722;BME280;32455;43.430;23.136;2022-08-16T13:39:09;97530.03;;;31.76;34.74
46722;BME280;32455;43.430;23.136;2022-08-16T13:41:55;97524.25;;;31.58;30.85
46722;BME280;32455;43.430;23.136;2022-08-16T13:44:40;97511.84;;;31.52;32.22
46722;BME280;32455;43.430;23.136;2022-08-16T13:47:25;97533.94;;;31.71;29.82
46722;BME280;32455;43.430;23.136;2022-08-16T13:50:11;97525.00;;;31.85;30.80
46722;BME280;32455;43.430;23.136;2022-08-16T13:52:57;97530.22;;;31.90;31.99
46722;BME280;32455;43.430;23.136;2022-08-16T13:55:42;97533.13;;;32.01;31.54
46722;BME280;32455;43.430;23.136;2022-08-16T13:58:28;97521.56;;;31.95;32.28
46722;BME280;32455;43.430;23.136;2022-08-16T14:01:15;97524.63;;;31.86;31.14
46722;BME280;32455;43.430;23.136;2022-08-16T14:04:04;97512.41;;;31.64;31.73
46722;BME280;32455;43.430;23.136;2022-08-16T14:06:49;97534.19;;;31.89;31.45
46722;BME280;32455;43.430;23.136;2022-08-16T14:09:35;97524.81;;;31.71;29.29
46722;BME280;32455;43.430;23.136;2022-08-16T14:12:23;97543.28;;;31.59;29.97
46722;BME280;32455;43.430;23.136;2022-08-16T14:15:11;97538.13;;;31.58;30.71
46722;BME280;32455;43.430;23.136;2022-08-16T14:17:57;97536.31;;;30.89;29.85
46722;BME280;32455;43.430;23.136;2022-08-16T14:20:42;97534.13;;;30.56;31.41
46722;BME280;32455;43.430;23.136;2022-08-16T14:23:27;97534.75;;;30.04;31.23
46722;BME280;32455;43.430;23.136;2022-08-16T14:26:12;97543.31;;;30.60;32.29
46722;BME280;32455;43.430;23.136;2022-08-16T14:28:58;97541.75;;;31.09;32.51
46722;BME280;32455;43.430;23.136;2022-08-16T14:31:44;97558.31;;;31.55;32.53